createdAt,value
2019-01-22T00:00:43.656Z,-2.1
2019-01-22T00:01:45.041Z,-2.2
2019-01-22T00:02:46.419Z,-2.2
2019-01-22T00:03:47.798Z,-2.1
2019-01-22T00:04:49.137Z,-2.3
2019-01-22T00:05:50.517Z,-2.1
2019-01-22T00:06:51.898Z,-2.2
2019-01-22T00:07:53.275Z,-2.2
2019-01-22T00:08:54.650Z,-2.2
2019-01-22T00:09:56.033Z,-2.3
2019-01-22T00:10:57.414Z,-2.2
2019-01-22T00:11:58.797Z,-2.3
2019-01-22T00:13:00.175Z,-2.2
2019-01-22T00:14:01.552Z,-2.2
2019-01-22T00:15:02.892Z,-2.3
2019-01-22T00:16:04.293Z,-2.3
2019-01-22T00:17:05.686Z,-2.2
2019-01-22T00:18:07.062Z,-2.3
2019-01-22T00:19:08.444Z,-2.3
2019-01-22T00:20:09.815Z,-2.4
2019-01-22T00:21:11.196Z,-2.4
2019-01-22T00:22:12.572Z,-2.4
2019-01-22T00:23:13.965Z,-2.4
2019-01-22T00:24:15.337Z,-2.5
2019-01-22T00:25:16.722Z,-2.5
2019-01-22T00:26:18.105Z,-2.5
2019-01-22T00:27:19.485Z,-2.4
2019-01-22T00:28:20.861Z,-2.5
2019-01-22T00:29:22.245Z,-2.5
2019-01-22T00:30:23.626Z,-2.6
2019-01-22T00:31:25.009Z,-2.6
2019-01-22T00:32:26.395Z,-2.6
2019-01-22T00:33:27.773Z,-2.6
2019-01-22T00:34:29.125Z,-2.6
2019-01-22T00:35:30.503Z,-2.6
2019-01-22T00:36:31.879Z,-2.6
2019-01-22T00:37:33.260Z,-2.6
2019-01-22T00:38:34.637Z,-2.7
2019-01-22T00:39:36.019Z,-2.7
2019-01-22T00:40:37.403Z,-2.6
2019-01-22T00:41:38.779Z,-2.6
2019-01-22T00:42:40.156Z,-2.6
2019-01-22T00:43:41.536Z,-2.7
2019-01-22T00:44:42.879Z,-2.6
2019-01-22T00:45:44.258Z,-2.6
2019-01-22T00:46:45.680Z,-2.6
2019-01-22T00:47:47.082Z,-2.6
2019-01-22T00:48:48.460Z,-2.6
2019-01-22T00:49:49.845Z,-2.6
2019-01-22T00:50:51.222Z,-2.6
2019-01-22T00:51:52.601Z,-2.6
2019-01-22T00:52:53.980Z,-2.6
2019-01-22T00:53:55.410Z,-2.7
2019-01-22T00:54:56.699Z,-2.7
2019-01-22T00:55:58.079Z,-2.6
2019-01-22T00:56:59.462Z,-2.7
2019-01-22T00:58:00.844Z,-2.7
2019-01-22T00:59:02.238Z,-2.7
2019-01-22T01:00:03.597Z,-2.8
2019-01-22T01:01:04.982Z,-2.7
2019-01-22T01:02:06.360Z,-2.7
2019-01-22T01:03:07.735Z,-2.8
2019-01-22T01:04:09.114Z,-2.7
2019-01-22T01:05:10.457Z,-2.8
2019-01-22T01:06:11.832Z,-2.8
2019-01-22T01:07:13.211Z,-2.8
2019-01-22T01:08:14.594Z,-2.7
2019-01-22T01:09:15.972Z,-2.8
2019-01-22T01:10:17.348Z,-2.7
2019-01-22T01:11:18.722Z,-2.7
2019-01-22T01:12:20.097Z,-2.8
2019-01-22T01:13:21.481Z,-2.8
2019-01-22T01:14:22.865Z,-2.7
2019-01-22T01:15:24.213Z,-2.7
2019-01-22T01:16:25.590Z,-2.8
2019-01-22T01:17:26.965Z,-2.7
2019-01-22T01:18:28.344Z,-2.7
2019-01-22T01:19:29.721Z,-2.7
2019-01-22T01:20:31.104Z,-2.7
2019-01-22T01:21:32.487Z,-2.7
2019-01-22T01:22:33.871Z,-2.8
2019-01-22T01:23:35.256Z,-2.7
2019-01-22T01:24:36.598Z,-2.7
2019-01-22T01:25:37.979Z,-2.6
2019-01-22T01:26:39.358Z,-2.7
2019-01-22T01:27:40.735Z,-2.7
2019-01-22T01:28:42.131Z,-2.7
2019-01-22T01:29:43.517Z,-2.7
2019-01-22T01:30:44.898Z,-2.8
2019-01-22T01:31:46.273Z,-2.8
2019-01-22T01:32:47.652Z,-2.8
2019-01-22T01:33:49.027Z,-2.7
2019-01-22T01:34:50.367Z,-2.8
2019-01-22T01:35:51.748Z,-2.8
2019-01-22T01:36:53.128Z,-2.7
2019-01-22T01:37:54.505Z,-2.8
2019-01-22T01:38:55.883Z,-2.8
2019-01-22T01:39:57.263Z,-2.7
2019-01-22T01:40:58.681Z,-2.7
2019-01-22T01:42:00.051Z,-2.7
2019-01-22T01:43:01.435Z,-2.8
2019-01-22T01:44:02.815Z,-2.7
2019-01-22T01:45:04.164Z,-2.8
2019-01-22T01:46:05.540Z,-2.8
2019-01-22T01:47:06.918Z,-2.8
2019-01-22T01:48:08.296Z,-2.7
2019-01-22T01:49:09.677Z,-2.8
2019-01-22T01:50:11.056Z,-2.8
2019-01-22T01:51:12.439Z,-2.8
2019-01-22T01:52:13.820Z,-2.9
2019-01-22T01:53:15.198Z,-2.9
2019-01-22T01:54:16.540Z,-2.9
2019-01-22T01:55:17.916Z,-2.8
2019-01-22T01:56:19.301Z,-2.9
2019-01-22T01:57:20.677Z,-2.8
2019-01-22T01:58:22.057Z,-2.9
2019-01-22T01:59:23.436Z,-2.8
2019-01-22T02:00:24.818Z,-2.9
2019-01-22T02:01:26.204Z,-2.9
2019-01-22T02:02:27.577Z,-2.8
2019-01-22T02:03:28.958Z,-2.8
2019-01-22T02:04:30.312Z,-2.7
2019-01-22T02:05:31.692Z,-2.8
2019-01-22T02:06:33.074Z,-2.8
2019-01-22T02:07:34.449Z,-2.7
2019-01-22T02:08:35.833Z,-2.7
2019-01-22T02:09:37.209Z,-2.7
2019-01-22T02:10:38.586Z,-2.8
2019-01-22T02:11:39.965Z,-2.8
2019-01-22T02:12:41.343Z,-2.8
2019-01-22T02:13:42.722Z,-2.7
2019-01-22T02:14:44.064Z,-2.7
2019-01-22T02:15:45.439Z,-2.8
2019-01-22T02:16:46.821Z,-2.8
2019-01-22T02:17:48.210Z,-2.8
2019-01-22T02:18:49.586Z,-2.8
2019-01-22T02:19:50.967Z,-2.7
2019-01-22T02:20:52.357Z,-2.8
2019-01-22T02:21:53.731Z,-2.8
2019-01-22T02:22:55.113Z,-2.7
2019-01-22T02:23:56.492Z,-2.7
2019-01-22T02:24:57.833Z,-2.8
2019-01-22T02:25:59.212Z,-2.7
2019-01-22T02:27:00.593Z,-2.7
2019-01-22T02:28:01.971Z,-2.7
2019-01-22T02:29:03.352Z,-2.7
2019-01-22T02:30:04.747Z,-2.7
2019-01-22T02:31:06.114Z,-2.8
2019-01-22T02:32:07.488Z,-2.7
2019-01-22T02:33:08.869Z,-2.7
2019-01-22T02:34:10.252Z,-2.8
2019-01-22T02:35:11.591Z,-2.7
2019-01-22T02:36:13.034Z,-2.7
2019-01-22T02:37:14.436Z,-2.8
2019-01-22T02:38:15.810Z,-2.8
2019-01-22T02:39:17.191Z,-2.7
2019-01-22T02:40:18.573Z,-2.7
2019-01-22T02:41:19.949Z,-2.7
2019-01-22T02:42:21.348Z,-2.8
2019-01-22T02:43:22.727Z,-2.8
2019-01-22T02:44:24.105Z,-2.7
2019-01-22T02:45:25.445Z,-2.7
2019-01-22T02:46:26.820Z,-2.7
2019-01-22T02:47:28.202Z,-2.6
2019-01-22T02:48:29.577Z,-2.7
2019-01-22T02:49:30.956Z,-2.7
2019-01-22T02:50:32.335Z,-2.6
2019-01-22T02:51:33.716Z,-2.7
2019-01-22T02:52:35.089Z,-2.6
2019-01-22T02:53:38.818Z,-2.6
2019-01-22T02:54:37.876Z,-2.7
2019-01-22T02:55:39.219Z,-2.7
2019-01-22T02:56:40.600Z,-2.7
2019-01-22T02:57:41.976Z,-2.6
2019-01-22T02:58:43.351Z,-2.6
2019-01-22T02:59:44.726Z,-2.6
2019-01-22T03:00:46.105Z,-2.6
2019-01-22T03:01:47.478Z,-2.6
2019-01-22T03:02:48.856Z,-2.6
2019-01-22T03:03:50.237Z,-2.5
2019-01-22T03:04:51.610Z,-2.6
2019-01-22T03:05:52.949Z,-2.4
2019-01-22T03:06:54.330Z,-2.4
2019-01-22T03:07:55.709Z,-2.5
2019-01-22T03:08:57.090Z,-2.5
2019-01-22T03:09:58.468Z,-2.5
2019-01-22T03:10:59.858Z,-2.4
2019-01-22T03:12:01.226Z,-2.4
2019-01-22T03:13:02.601Z,-2.4
2019-01-22T03:14:03.984Z,-2.4
2019-01-22T03:15:05.428Z,-2.4
2019-01-22T03:16:06.703Z,-2.4
2019-01-22T03:17:08.079Z,-2.3
2019-01-22T03:18:09.458Z,-2.2
2019-01-22T03:19:10.834Z,-2.3
2019-01-22T03:20:12.237Z,-2.3
2019-01-22T03:21:13.617Z,-2.3
2019-01-22T03:22:15.004Z,-2.2
2019-01-22T03:23:16.380Z,-2.2
2019-01-22T03:24:17.758Z,-2.3
2019-01-22T03:25:19.144Z,-2.2
2019-01-22T03:26:20.489Z,-2.1
2019-01-22T03:27:21.872Z,-2.3
2019-01-22T03:28:23.251Z,-2.2
2019-01-22T03:29:24.630Z,-2.2
2019-01-22T03:30:26.015Z,-2.2
2019-01-22T03:31:27.424Z,-2.2
2019-01-22T03:32:28.812Z,-2.2
2019-01-22T03:33:30.189Z,-2.2
2019-01-22T03:34:31.563Z,-2.3
2019-01-22T03:35:32.941Z,-2.2
2019-01-22T03:36:34.282Z,-2.3
2019-01-22T03:37:35.666Z,-2.2
2019-01-22T03:38:37.044Z,-2.3
2019-01-22T03:39:38.422Z,-2.2
2019-01-22T03:40:39.805Z,-2.3
2019-01-22T03:41:41.181Z,-2.3
2019-01-22T03:42:42.557Z,-2.2
2019-01-22T03:43:43.941Z,-2.2
2019-01-22T03:44:45.323Z,-2.3
2019-01-22T03:45:46.699Z,-2.3
2019-01-22T03:46:48.041Z,-2.3
2019-01-22T03:47:49.419Z,-2.2
2019-01-22T03:48:50.792Z,-2.3
2019-01-22T03:49:52.170Z,-2.2
2019-01-22T03:50:53.544Z,-2.3
2019-01-22T03:51:54.921Z,-2.3
2019-01-22T03:52:56.302Z,-2.3
2019-01-22T03:53:57.684Z,-2.2
2019-01-22T03:54:59.065Z,-2.2
2019-01-22T03:56:00.442Z,-2.2
2019-01-22T03:57:01.825Z,-2.2
2019-01-22T03:58:03.171Z,-2.2
2019-01-22T03:59:04.544Z,-2.3
2019-01-22T04:00:05.965Z,-2.3
2019-01-22T04:01:07.297Z,-2.3
2019-01-22T04:02:08.706Z,-2.4
2019-01-22T04:03:10.114Z,-2.4
2019-01-22T04:04:11.499Z,-2.3
2019-01-22T04:05:12.878Z,-2.4
2019-01-22T04:06:14.258Z,-2.3
2019-01-22T04:07:15.638Z,-2.4
2019-01-22T04:08:16.975Z,-2.4
2019-01-22T04:09:18.350Z,-2.4
2019-01-22T04:10:19.728Z,-2.3
2019-01-22T04:11:21.109Z,-2.3
2019-01-22T04:12:22.493Z,-2.4
2019-01-22T04:13:23.865Z,-2.4
2019-01-22T04:14:25.250Z,-2.4
2019-01-22T04:15:26.634Z,-2.4
2019-01-22T04:16:28.011Z,-2.4
2019-01-22T04:17:29.398Z,-2.4
2019-01-22T04:18:30.747Z,-2.4
2019-01-22T04:19:32.126Z,-2.4
2019-01-22T04:20:33.507Z,-2.4
2019-01-22T04:21:34.881Z,-2.4
2019-01-22T04:22:36.264Z,-2.4
2019-01-22T04:23:37.640Z,-2.4
2019-01-22T04:24:39.022Z,-2.4
2019-01-22T04:25:40.446Z,-2.4
2019-01-22T04:26:41.868Z,-2.4
2019-01-22T04:27:43.249Z,-2.4
2019-01-22T04:28:44.592Z,-2.5
2019-01-22T04:29:45.972Z,-2.6
2019-01-22T04:30:47.355Z,-2.5
2019-01-22T04:31:48.736Z,-2.5
2019-01-22T04:32:50.111Z,-2.5
2019-01-22T04:33:51.500Z,-2.5
2019-01-22T04:34:52.883Z,-2.5
2019-01-22T04:35:54.268Z,-2.5
2019-01-22T04:36:55.652Z,-2.6
2019-01-22T04:37:57.023Z,-2.5
2019-01-22T04:38:58.405Z,-2.6
2019-01-22T04:39:59.759Z,-2.5
2019-01-22T04:41:01.138Z,-2.6
2019-01-22T04:42:02.518Z,-2.5
2019-01-22T04:43:03.898Z,-2.6
2019-01-22T04:44:05.276Z,-2.6
2019-01-22T04:45:06.649Z,-2.6
2019-01-22T04:46:08.025Z,-2.6
2019-01-22T04:47:09.440Z,-2.5
2019-01-22T04:48:10.826Z,-2.5
2019-01-22T04:49:12.207Z,-2.5
2019-01-22T04:50:13.545Z,-2.5
2019-01-22T04:51:14.920Z,-2.6
2019-01-22T04:52:16.295Z,-2.6
2019-01-22T04:53:17.667Z,-2.5
2019-01-22T04:54:19.045Z,-2.6
2019-01-22T04:55:20.422Z,-2.5
2019-01-22T04:56:21.800Z,-2.5
2019-01-22T04:57:23.181Z,-2.4
2019-01-22T04:58:24.562Z,-2.4
2019-01-22T04:59:25.939Z,-2.4
2019-01-22T05:00:27.321Z,-2.4
2019-01-22T05:01:28.660Z,-2.3
2019-01-22T05:02:30.035Z,-2.3
2019-01-22T05:03:31.414Z,-2.4
2019-01-22T05:04:32.796Z,-2.3
2019-01-22T05:05:34.175Z,-2.4
2019-01-22T05:06:35.550Z,-2.5
2019-01-22T05:07:36.926Z,-2.3
2019-01-22T05:08:38.334Z,-2.3
2019-01-22T05:09:39.742Z,-2.3
2019-01-22T05:10:41.120Z,-2.4
2019-01-22T05:11:42.466Z,-2.3
2019-01-22T05:12:43.849Z,-2.3
2019-01-22T05:13:45.229Z,-2.2
2019-01-22T05:14:46.606Z,-2.3
2019-01-22T05:15:47.995Z,-2.2
2019-01-22T05:16:49.373Z,-2.1
2019-01-22T05:17:50.752Z,-2.2
2019-01-22T05:18:52.134Z,-2.1
2019-01-22T05:19:53.514Z,-2.1
2019-01-22T05:20:54.904Z,-2.1
2019-01-22T05:21:56.267Z,-2.1
2019-01-22T05:22:57.645Z,-2.1
2019-01-22T05:23:59.026Z,-2.1
2019-01-22T05:25:00.421Z,-2.1
2019-01-22T05:26:01.792Z,-2.1
2019-01-22T05:27:03.168Z,-2.1
2019-01-22T05:28:04.550Z,-2.1
2019-01-22T05:29:05.933Z,-2.1
2019-01-22T05:30:07.314Z,-2.0
2019-01-22T05:31:08.694Z,-2.0
2019-01-22T05:32:10.072Z,-2.0
2019-01-22T05:33:11.414Z,-1.9
2019-01-22T05:34:12.786Z,-2.0
2019-01-22T05:35:14.178Z,-1.9
2019-01-22T05:36:15.553Z,-2.0
2019-01-22T05:37:16.938Z,-1.9
2019-01-22T05:38:18.327Z,-1.9
2019-01-22T05:39:19.706Z,-1.9
2019-01-22T05:40:21.083Z,-1.9
2019-01-22T05:41:22.459Z,-1.9
2019-01-22T05:42:23.839Z,-1.9
2019-01-22T05:43:25.181Z,-1.9
2019-01-22T05:44:26.556Z,-1.8
2019-01-22T05:45:27.939Z,-1.8
2019-01-22T05:46:29.316Z,-1.8
2019-01-22T05:47:30.688Z,-1.8
2019-01-22T05:48:32.068Z,-1.9
2019-01-22T05:49:33.446Z,-1.8
2019-01-22T05:50:34.823Z,-1.8
2019-01-22T05:51:36.202Z,-1.8
2019-01-22T05:52:37.547Z,-1.9
2019-01-22T05:53:38.930Z,-1.8
2019-01-22T05:54:40.314Z,-1.8
2019-01-22T05:55:41.693Z,-1.8
2019-01-22T05:56:43.070Z,-1.8
2019-01-22T05:57:44.441Z,-1.8
2019-01-22T05:58:45.819Z,-1.8
2019-01-22T05:59:48.100Z,-1.8
2019-01-22T06:00:48.538Z,-1.8
2019-01-22T06:01:49.920Z,-1.8
2019-01-22T06:02:51.300Z,-1.8
2019-01-22T06:03:52.675Z,-1.8
2019-01-22T06:04:54.057Z,-1.8
2019-01-22T06:05:55.430Z,-1.8
2019-01-22T06:06:56.811Z,-1.7
2019-01-22T06:07:58.195Z,-1.8
2019-01-22T06:08:59.571Z,-1.8
2019-01-22T06:10:00.952Z,-1.8
2019-01-22T06:11:02.328Z,-1.8
2019-01-22T06:12:03.704Z,-1.8
2019-01-22T06:13:05.080Z,-1.8
2019-01-22T06:14:06.466Z,-1.8
2019-01-22T06:15:07.834Z,-1.8
2019-01-22T06:16:09.218Z,-1.7
2019-01-22T06:17:10.635Z,-1.8
2019-01-22T06:18:12.006Z,-1.8
2019-01-22T06:19:13.405Z,-1.7
2019-01-22T06:20:14.782Z,-1.8
2019-01-22T06:21:16.161Z,-1.8
2019-01-22T06:22:17.542Z,-1.8
2019-01-22T06:23:18.924Z,-1.7
2019-01-22T06:24:20.313Z,-1.8
2019-01-22T06:25:21.702Z,-1.8
2019-01-22T06:26:23.064Z,-1.8
2019-01-22T06:27:24.538Z,-1.9
2019-01-22T06:28:25.836Z,-1.8
2019-01-22T06:29:27.175Z,-1.8
2019-01-22T06:30:28.556Z,-1.9
2019-01-22T06:31:29.931Z,-1.8
2019-01-22T06:32:31.310Z,-1.9
2019-01-22T06:33:32.689Z,-1.8
2019-01-22T06:34:34.069Z,-1.8
2019-01-22T06:35:35.476Z,-1.9
2019-01-22T06:36:36.835Z,-1.8
2019-01-22T06:37:38.228Z,-1.9
2019-01-22T06:38:39.672Z,-2.0
2019-01-22T06:39:41.052Z,-1.9
2019-01-22T06:40:42.436Z,-1.9
2019-01-22T06:41:43.819Z,-1.9
2019-01-22T06:42:45.200Z,-1.9
2019-01-22T06:43:46.578Z,-1.9
2019-01-22T06:44:47.982Z,-1.9
2019-01-22T06:45:49.364Z,-1.9
2019-01-22T06:46:50.742Z,-1.9
2019-01-22T06:47:52.116Z,-1.9
2019-01-22T06:48:53.492Z,-1.9
2019-01-22T06:49:54.881Z,-1.9
2019-01-22T06:50:56.263Z,-1.8
2019-01-22T06:51:57.645Z,-1.9
2019-01-22T06:52:59.030Z,-1.8
2019-01-22T06:54:00.411Z,-1.8
2019-01-22T06:55:01.787Z,-1.9
2019-01-22T06:56:03.176Z,-1.8
2019-01-22T06:57:04.552Z,-1.8
2019-01-22T06:58:05.935Z,-1.8
2019-01-22T06:59:07.319Z,-1.9
2019-01-22T07:00:08.696Z,-1.9
2019-01-22T07:01:10.080Z,-1.8
2019-01-22T07:02:11.470Z,-1.9
2019-01-22T07:03:12.846Z,-1.9
2019-01-22T07:04:14.232Z,-1.8
2019-01-22T07:05:15.606Z,-1.9
2019-01-22T07:06:16.990Z,-1.8
2019-01-22T07:07:18.369Z,-1.8
2019-01-22T07:08:19.751Z,-1.9
2019-01-22T07:09:21.126Z,-1.9
2019-01-22T07:10:22.506Z,-2.0
2019-01-22T07:11:23.917Z,-1.9
2019-01-22T07:12:25.343Z,-1.9
2019-01-22T07:13:26.723Z,-1.9
2019-01-22T07:14:28.101Z,-1.9
2019-01-22T07:15:29.481Z,-1.9
2019-01-22T07:16:30.857Z,-1.9
2019-01-22T07:17:32.243Z,-1.9
2019-01-22T07:18:33.640Z,-1.9
2019-01-22T07:19:35.022Z,-1.8
2019-01-22T07:20:36.397Z,-1.9
2019-01-22T07:21:37.789Z,-1.9
2019-01-22T07:22:39.176Z,-1.8
2019-01-22T07:23:40.547Z,-1.8
2019-01-22T07:24:46.703Z,-1.8
2019-01-22T07:25:43.287Z,-1.9
2019-01-22T07:26:44.670Z,-1.8
2019-01-22T07:27:46.077Z,-1.8
2019-01-22T07:28:47.486Z,-1.9
2019-01-22T07:29:48.853Z,-1.9
2019-01-22T07:30:50.246Z,-1.9
2019-01-22T07:31:51.625Z,-1.8
2019-01-22T07:32:53.004Z,-1.8
2019-01-22T07:33:54.388Z,-1.8
2019-01-22T07:34:55.771Z,-1.8
2019-01-22T07:35:57.156Z,-1.8
2019-01-22T07:36:58.533Z,-1.7
2019-01-22T07:37:59.907Z,-1.8
2019-01-22T07:39:01.290Z,-1.9
2019-01-22T07:40:02.677Z,-1.8
2019-01-22T07:41:04.065Z,-1.7
2019-01-22T07:42:05.450Z,-1.7
2019-01-22T07:43:06.837Z,-1.8
2019-01-22T07:44:08.228Z,-1.7
2019-01-22T07:45:09.600Z,-1.7
2019-01-22T07:46:10.981Z,-1.7
2019-01-22T07:47:12.371Z,-1.7
2019-01-22T07:48:13.758Z,-1.7
2019-01-22T07:49:15.136Z,-1.7
2019-01-22T07:50:16.523Z,-1.7
2019-01-22T07:51:17.900Z,-1.7
2019-01-22T07:52:19.278Z,-1.6
2019-01-22T07:53:20.656Z,-1.6
2019-01-22T07:54:22.045Z,-1.8
2019-01-22T07:55:23.432Z,-1.7
2019-01-22T07:56:24.860Z,-1.7
2019-01-22T07:57:26.194Z,-1.6
2019-01-22T07:58:27.575Z,-1.6
2019-01-22T07:59:28.956Z,-1.6
2019-01-22T08:00:30.335Z,-1.6
2019-01-22T08:01:31.713Z,-1.5
2019-01-22T08:02:33.097Z,-1.6
2019-01-22T08:03:34.489Z,-1.5
2019-01-22T08:04:35.867Z,-1.5
2019-01-22T08:05:37.251Z,-1.5
2019-01-22T08:06:38.699Z,-1.6
2019-01-22T08:07:40.084Z,-1.5
2019-01-22T08:08:41.467Z,-1.4
2019-01-22T08:09:42.851Z,-1.4
2019-01-22T08:10:44.232Z,-1.4
2019-01-22T08:11:45.615Z,-1.4
2019-01-22T08:12:46.991Z,-1.4
2019-01-22T08:13:48.375Z,-1.4
2019-01-22T08:14:49.757Z,-1.4
2019-01-22T08:15:51.133Z,-1.4
2019-01-22T08:16:52.515Z,-1.4
2019-01-22T08:17:53.899Z,-1.3
2019-01-22T08:18:55.283Z,-1.3
2019-01-22T08:19:56.693Z,-1.3
2019-01-22T08:20:58.142Z,-1.3
2019-01-22T08:21:59.499Z,-1.2
2019-01-22T08:23:00.881Z,-1.3
2019-01-22T08:24:02.261Z,-1.2
2019-01-22T08:25:03.640Z,-1.2
2019-01-22T08:26:05.026Z,-1.2
2019-01-22T08:27:06.406Z,-1.2
2019-01-22T08:28:07.795Z,-1.2
2019-01-22T08:29:09.180Z,-1.1
2019-01-22T08:30:10.565Z,-1.1
2019-01-22T08:31:11.953Z,-1.1
2019-01-22T08:32:13.337Z,-1.1
2019-01-22T08:33:14.724Z,-1.1
2019-01-22T08:34:16.106Z,-1.0
2019-01-22T08:35:17.486Z,-1.0
2019-01-22T08:36:18.867Z,-1.0
2019-01-22T08:37:20.251Z,-0.9
2019-01-22T08:38:21.694Z,-0.9
2019-01-22T08:39:23.078Z,-0.9
2019-01-22T08:40:24.459Z,-0.8
2019-01-22T08:41:25.837Z,-0.9
2019-01-22T08:42:27.221Z,-0.8
2019-01-22T08:43:28.604Z,-0.8
2019-01-22T08:44:29.990Z,-0.8
2019-01-22T08:45:31.371Z,-0.8
2019-01-22T08:46:32.761Z,-0.8
2019-01-22T08:47:34.146Z,-0.6
2019-01-22T08:48:35.531Z,-0.6
2019-01-22T08:49:36.919Z,-0.7
2019-01-22T08:50:38.308Z,-0.6
2019-01-22T08:51:39.690Z,-0.5
2019-01-22T08:52:41.073Z,-0.5
2019-01-22T08:53:42.462Z,-0.4
2019-01-22T08:54:43.854Z,-0.4
2019-01-22T08:55:45.240Z,-0.3
2019-01-22T08:56:46.620Z,-0.4
2019-01-22T08:57:48.003Z,-0.4
2019-01-22T08:58:49.390Z,-0.3
2019-01-22T08:59:50.780Z,-0.3
2019-01-22T09:00:52.220Z,-0.1
2019-01-22T09:01:53.616Z,-0.2
2019-01-22T09:02:55.002Z,-0.0
2019-01-22T09:03:56.383Z,-0.1
2019-01-22T09:04:57.809Z,-0.0
2019-01-22T09:05:59.149Z,-0.0
2019-01-22T09:07:00.533Z,0.1
2019-01-22T09:08:01.907Z,0.0
2019-01-22T09:09:03.287Z,0.1
2019-01-22T09:10:04.662Z,0.1
2019-01-22T09:11:06.036Z,0.2
2019-01-22T09:12:07.414Z,0.2
2019-01-22T09:13:08.798Z,0.1
2019-01-22T09:14:10.177Z,0.2
2019-01-22T09:15:11.579Z,0.2
2019-01-22T09:16:12.957Z,0.3
2019-01-22T09:17:14.332Z,0.3
2019-01-22T09:18:15.710Z,0.3
2019-01-22T09:19:17.085Z,0.2
2019-01-22T09:20:18.470Z,0.3
2019-01-22T09:21:19.852Z,0.4
2019-01-22T09:22:21.231Z,0.5
2019-01-22T09:23:22.610Z,0.5
2019-01-22T09:24:23.990Z,0.5
2019-01-22T09:25:25.363Z,0.6
2019-01-22T09:26:26.744Z,0.7
2019-01-22T09:27:28.128Z,0.7
2019-01-22T09:28:29.509Z,0.8
2019-01-22T09:29:30.892Z,0.8
2019-01-22T09:30:32.271Z,0.8
2019-01-22T09:31:33.648Z,0.9
2019-01-22T09:32:35.030Z,0.9
2019-01-22T09:33:36.410Z,0.9
2019-01-22T09:34:37.789Z,1.1
2019-01-22T09:35:39.175Z,1.0
2019-01-22T09:36:40.555Z,1.1
2019-01-22T09:37:41.942Z,1.2
2019-01-22T09:38:43.321Z,1.2
2019-01-22T09:39:44.698Z,1.3
2019-01-22T09:40:46.076Z,1.3
2019-01-22T09:41:47.467Z,1.3
2019-01-22T09:42:48.843Z,1.3
2019-01-22T09:43:50.224Z,1.4
2019-01-22T09:44:51.612Z,1.4
2019-01-22T09:45:52.989Z,1.4
2019-01-22T09:46:54.378Z,1.5
2019-01-22T09:47:55.759Z,1.5
2019-01-22T09:48:57.137Z,1.5
2019-01-22T09:49:58.530Z,1.5
2019-01-22T09:50:59.919Z,1.6
2019-01-22T09:52:01.304Z,1.6
2019-01-22T09:53:02.689Z,1.6
2019-01-22T09:54:04.069Z,1.7
2019-01-22T09:55:05.448Z,1.7
2019-01-22T09:56:06.866Z,1.6
2019-01-22T09:57:08.266Z,1.5
2019-01-22T09:58:09.648Z,1.6
2019-01-22T09:59:11.036Z,1.6
2019-01-22T10:00:12.423Z,1.7
2019-01-22T10:01:13.806Z,1.8
2019-01-22T10:02:15.182Z,1.7
2019-01-22T10:03:16.674Z,1.8
2019-01-22T10:04:17.913Z,1.8
2019-01-22T10:05:19.297Z,1.8
2019-01-22T10:06:21.560Z,1.8
2019-01-22T10:07:22.047Z,1.8
2019-01-22T10:08:23.425Z,1.8
2019-01-22T10:09:24.812Z,1.9
2019-01-22T10:10:26.193Z,1.8
2019-01-22T10:11:27.575Z,1.9
2019-01-22T10:12:28.966Z,1.9
2019-01-22T10:13:30.349Z,1.9
2019-01-22T10:14:31.737Z,2.0
2019-01-22T10:15:33.132Z,1.9
2019-01-22T10:16:34.513Z,2.0
2019-01-22T10:17:35.895Z,2.0
2019-01-22T10:18:37.277Z,2.1
2019-01-22T10:19:38.657Z,2.1
2019-01-22T10:20:40.045Z,2.2
2019-01-22T10:21:41.426Z,2.2
2019-01-22T10:22:42.818Z,2.3
2019-01-22T10:23:46.855Z,2.3
2019-01-22T10:24:45.537Z,2.4
2019-01-22T10:25:46.936Z,2.5
2019-01-22T10:26:48.317Z,2.6
2019-01-22T10:27:49.702Z,2.6
2019-01-22T10:28:51.085Z,2.6
2019-01-22T10:29:52.466Z,2.6
2019-01-22T10:30:53.844Z,2.7
2019-01-22T10:31:55.229Z,2.8
2019-01-22T10:32:56.613Z,2.8
2019-01-22T10:33:58.038Z,2.8
2019-01-22T10:34:59.419Z,2.8
2019-01-22T10:36:00.798Z,2.9
2019-01-22T10:37:02.175Z,2.9
2019-01-22T10:38:03.557Z,3.0
2019-01-22T10:39:04.942Z,3.0
2019-01-22T10:40:07.815Z,2.9
2019-01-22T10:41:07.670Z,3.0
2019-01-22T10:42:09.057Z,3.0
2019-01-22T10:43:10.434Z,3.0
2019-01-22T10:44:11.821Z,3.1
2019-01-22T10:45:13.205Z,3.1
2019-01-22T10:46:14.590Z,3.1
2019-01-22T10:47:15.979Z,3.2
2019-01-22T10:48:17.370Z,3.1
2019-01-22T10:49:18.755Z,3.3
2019-01-22T10:50:20.148Z,3.3
2019-01-22T10:51:21.563Z,3.5
2019-01-22T10:52:22.950Z,3.6
2019-01-22T10:53:24.333Z,3.5
2019-01-22T10:54:25.713Z,3.7
2019-01-22T10:55:27.101Z,3.8
2019-01-22T10:56:28.482Z,3.7
2019-01-22T10:57:29.859Z,3.8
2019-01-22T10:58:31.250Z,3.8
2019-01-22T10:59:32.640Z,4.0
2019-01-22T11:00:34.023Z,4.0
2019-01-22T11:01:35.408Z,4.1
2019-01-22T11:02:36.794Z,4.2
2019-01-22T11:03:38.179Z,4.2
2019-01-22T11:04:39.560Z,4.3
2019-01-22T11:05:40.956Z,4.3
2019-01-22T11:06:42.343Z,4.3
2019-01-22T11:07:43.725Z,4.5
2019-01-22T11:08:45.105Z,4.5
2019-01-22T11:09:46.492Z,4.5
2019-01-22T11:10:47.873Z,4.6
2019-01-22T11:11:49.259Z,4.6
2019-01-22T11:12:50.639Z,4.6
2019-01-22T11:13:52.023Z,4.7
2019-01-22T11:14:53.413Z,4.8
2019-01-22T11:15:54.800Z,4.8
2019-01-22T11:16:56.182Z,5.0
2019-01-22T11:17:57.613Z,4.9
2019-01-22T11:18:58.999Z,5.0
2019-01-22T11:20:00.382Z,5.0
2019-01-22T11:21:01.763Z,5.2
2019-01-22T11:22:03.156Z,5.2
2019-01-22T11:23:04.538Z,5.4
2019-01-22T11:24:05.938Z,5.5
2019-01-22T11:25:07.328Z,5.6
2019-01-22T11:26:08.709Z,5.6
2019-01-22T11:27:10.090Z,5.7
2019-01-22T11:28:11.473Z,6.0
2019-01-22T11:29:12.863Z,6.1
2019-01-22T11:30:14.247Z,6.1
2019-01-22T11:31:15.633Z,6.2
2019-01-22T11:32:17.023Z,6.0
2019-01-22T11:33:18.405Z,5.8
2019-01-22T11:34:19.789Z,5.9
2019-01-22T11:35:21.175Z,5.7
2019-01-22T11:36:22.559Z,5.6
2019-01-22T11:37:23.943Z,5.6
2019-01-22T11:38:25.330Z,5.6
2019-01-22T11:39:26.711Z,5.5
2019-01-22T11:40:28.094Z,5.5
2019-01-22T11:41:29.477Z,5.5
2019-01-22T11:42:30.864Z,5.3
2019-01-22T11:43:32.298Z,5.3
2019-01-22T11:44:33.686Z,5.2
2019-01-22T11:45:35.071Z,5.1
2019-01-22T11:46:36.463Z,5.1
2019-01-22T11:47:37.843Z,5.1
2019-01-22T11:48:39.228Z,4.9
2019-01-22T11:49:40.608Z,5.0
2019-01-22T11:50:41.991Z,4.9
2019-01-22T11:51:43.373Z,5.0
2019-01-22T11:52:44.761Z,4.7
2019-01-22T11:53:46.146Z,4.7
2019-01-22T11:54:47.532Z,4.6
2019-01-22T11:55:50.552Z,4.5
2019-01-22T11:56:50.260Z,4.5
2019-01-22T11:57:51.647Z,4.5
2019-01-22T11:58:53.032Z,4.4
2019-01-22T11:59:54.413Z,4.3
2019-01-22T12:00:55.798Z,4.4
2019-01-22T12:01:57.180Z,4.4
2019-01-22T12:02:58.561Z,4.3
2019-01-22T12:03:59.943Z,4.4
2019-01-22T12:05:01.325Z,4.5
2019-01-22T12:06:02.710Z,4.4
2019-01-22T12:07:04.101Z,4.2
2019-01-22T12:08:05.490Z,4.3
2019-01-22T12:09:06.874Z,4.4
2019-01-22T12:10:08.257Z,4.4
2019-01-22T12:11:09.640Z,4.4
2019-01-22T12:12:11.021Z,4.3
2019-01-22T12:13:12.400Z,4.5
2019-01-22T12:14:13.785Z,4.6
2019-01-22T12:15:15.170Z,4.8
2019-01-22T12:16:16.550Z,4.9
2019-01-22T12:17:17.935Z,4.9
2019-01-22T12:18:19.320Z,5.1
2019-01-22T12:19:20.702Z,5.1
2019-01-22T12:20:22.082Z,5.2
2019-01-22T12:21:23.469Z,5.2
2019-01-22T12:22:25.099Z,5.2
2019-01-22T12:23:26.223Z,5.6
2019-01-22T12:24:27.611Z,5.9
2019-01-22T12:25:28.992Z,5.8
2019-01-22T12:26:30.381Z,5.8
2019-01-22T12:27:31.768Z,5.9
2019-01-22T12:28:33.155Z,5.9
2019-01-22T12:29:34.538Z,6.0
2019-01-22T12:30:35.939Z,5.9
2019-01-22T12:31:37.323Z,6.0
2019-01-22T12:32:38.707Z,6.0
2019-01-22T12:33:40.089Z,6.2
2019-01-22T12:34:41.473Z,6.4
2019-01-22T12:35:42.863Z,6.5
2019-01-22T12:36:44.307Z,6.6
2019-01-22T12:37:45.699Z,6.7
2019-01-22T12:38:47.082Z,6.5
2019-01-22T12:39:48.460Z,6.3
2019-01-22T12:40:49.842Z,6.2
2019-01-22T12:41:51.224Z,6.1
2019-01-22T12:42:52.612Z,6.2
2019-01-22T12:43:53.998Z,6.2
2019-01-22T12:44:55.380Z,6.3
2019-01-22T12:45:56.760Z,6.4
2019-01-22T12:46:58.146Z,6.6
2019-01-22T12:47:59.533Z,6.9
2019-01-22T12:49:00.918Z,6.9
2019-01-22T12:50:02.310Z,7.1
2019-01-22T12:51:03.695Z,7.1
2019-01-22T12:52:05.090Z,7.0
2019-01-22T12:53:06.470Z,6.9
2019-01-22T12:54:07.849Z,6.9
2019-01-22T12:55:09.235Z,6.7
2019-01-22T12:56:10.611Z,6.5
2019-01-22T12:57:12.012Z,6.6
2019-01-22T12:58:13.424Z,6.5
2019-01-22T12:59:14.801Z,6.4
2019-01-22T13:00:16.183Z,6.3
2019-01-22T13:01:17.563Z,6.2
2019-01-22T13:02:18.951Z,6.1
2019-01-22T13:03:20.331Z,6.0
2019-01-22T13:04:21.716Z,5.9
2019-01-22T13:05:23.111Z,5.8
2019-01-22T13:06:24.493Z,5.6
2019-01-22T13:07:25.877Z,5.5
2019-01-22T13:08:27.263Z,5.3
2019-01-22T13:09:28.668Z,5.0
2019-01-22T13:10:30.052Z,4.8
2019-01-22T13:11:31.433Z,5.0
2019-01-22T13:12:32.816Z,4.9
2019-01-22T13:13:34.202Z,4.9
2019-01-22T13:14:35.580Z,4.8
2019-01-22T13:15:36.967Z,4.6
2019-01-22T13:16:38.352Z,4.4
2019-01-22T13:17:39.732Z,4.2
2019-01-22T13:18:41.111Z,4.2
2019-01-22T13:19:42.493Z,4.2
2019-01-22T13:20:43.879Z,4.1
2019-01-22T13:21:45.253Z,4.1
2019-01-22T13:22:46.631Z,4.0
2019-01-22T13:23:48.027Z,4.0
2019-01-22T13:24:49.409Z,3.9
2019-01-22T13:25:50.807Z,3.8
2019-01-22T13:26:52.188Z,3.8
2019-01-22T13:27:53.566Z,3.7
2019-01-22T13:28:54.958Z,3.6
2019-01-22T13:30:01.331Z,3.7
2019-01-22T13:30:57.708Z,3.6
2019-01-22T13:31:59.092Z,3.6
2019-01-22T13:33:00.472Z,3.5
2019-01-22T13:34:01.859Z,3.4
2019-01-22T13:35:03.241Z,3.4
2019-01-22T13:36:04.622Z,3.3
2019-01-22T13:37:06.009Z,3.2
2019-01-22T13:38:07.387Z,3.2
2019-01-22T13:39:08.778Z,3.2
2019-01-22T13:40:10.162Z,3.1
2019-01-22T13:41:11.551Z,3.0
2019-01-22T13:42:12.924Z,3.0
2019-01-22T13:43:14.304Z,2.9
2019-01-22T13:44:15.684Z,2.9
2019-01-22T13:45:17.066Z,2.8
2019-01-22T13:46:18.443Z,2.8